sensor_id;sensor_type;location;lat;lon;timestamp;pressure;altitude;pressure_sealevel;temperature;humidity
35694;BME280;21812;55.536;37.664;2022-08-21T00:00:18;100639.50;;;21.26;40.19
35694;BME280;21812;55.536;37.664;2022-08-21T00:02:47;100621.34;;;21.15;40.17
35694;BME280;21812;55.536;37.664;2022-08-21T00:05:14;100625.72;;;21.16;40.43
35694;BME280;21812;55.536;37.664;2022-08-21T00:07:40;100634.34;;;21.13;40.70
35694;BME280;21812;55.536;37.664;2022-08-21T00:10:08;100626.94;;;20.96;40.98
35694;BME280;21812;55.536;37.664;2022-08-21T00:12:34;100622.53;;;20.95;41.23
35694;BME280;21812;55.536;37.664;2022-08-21T00:14:59;100629.72;;;21.01;41.07
35694;BME280;21812;55.536;37.664;2022-08-21T00:17:25;100626.31;;;20.94;41.13
35694;BME280;21812;55.536;37.664;2022-08-21T00:19:51;100628.78;;;20.96;41.26
35694;BME280;21812;55.536;37.664;2022-08-21T00:22:16;100622.91;;;20.99;41.26
35694;BME280;21812;55.536;37.664;2022-08-21T00:24:42;100618.16;;;20.94;41.00
35694;BME280;21812;55.536;37.664;2022-08-21T00:27:08;100619.59;;;20.85;41.37
35694;BME280;21812;55.536;37.664;2022-08-21T00:29:34;100621.13;;;20.81;41.52
35694;BME280;21812;55.536;37.664;2022-08-21T00:31:59;100626.69;;;20.74;41.27
35694;BME280;21812;55.536;37.664;2022-08-21T00:34:25;100624.78;;;20.75;41.74
35694;BME280;21812;55.536;37.664;2022-08-21T00:36:51;100609.31;;;20.63;41.45
35694;BME280;21812;55.536;37.664;2022-08-21T00:39:17;100624.78;;;20.63;42.07
35694;BME280;21812;55.536;37.664;2022-08-21T00:41:43;100615.53;;;20.52;41.97
35694;BME280;21812;55.536;37.664;2022-08-21T00:44:10;100612.72;;;20.59;42.14
35694;BME280;21812;55.536;37.664;2022-08-21T00:46:37;100627.84;;;20.66;41.86
35694;BME280;21812;55.536;37.664;2022-08-21T00:49:05;100632.09;;;20.62;41.59
35694;BME280;21812;55.536;37.664;2022-08-21T00:54:06;100597.25;;;20.36;41.38
35694;BME280;21812;55.536;37.664;2022-08-21T00:56:33;100621.31;;;20.44;41.70
35694;BME280;21812;55.536;37.664;2022-08-21T00:58:59;100617.19;;;20.53;42.12
35694;BME280;21812;55.536;37.664;2022-08-21T01:01:25;100614.03;;;20.56;41.81
35694;BME280;21812;55.536;37.664;2022-08-21T01:03:51;100611.41;;;20.49;41.89
35694;BME280;21812;55.536;37.664;2022-08-21T01:06:17;100621.66;;;20.36;42.24
35694;BME280;21812;55.536;37.664;2022-08-21T01:08:44;100617.19;;;20.41;42.35
35694;BME280;21812;55.536;37.664;2022-08-21T01:11:09;100624.16;;;20.49;42.22
35694;BME280;21812;55.536;37.664;2022-08-21T01:13:36;100601.59;;;20.37;41.74
35694;BME280;21812;55.536;37.664;2022-08-21T01:16:14;100599.97;;;20.47;41.66
35694;BME280;21812;55.536;37.664;2022-08-21T01:18:41;100620.16;;;20.63;41.74
35694;BME280;21812;55.536;37.664;2022-08-21T01:21:27;100623.47;;;20.65;41.47
35694;BME280;21812;55.536;37.664;2022-08-21T01:23:53;100612.00;;;20.51;41.87
35694;BME280;21812;55.536;37.664;2022-08-21T01:26:24;100575.75;;;20.22;41.82
35694;BME280;21812;55.536;37.664;2022-08-21T01:29:00;100609.06;;;20.53;41.50
35694;BME280;21812;55.536;37.664;2022-08-21T01:31:28;100616.47;;;20.46;41.90
35694;BME280;21812;55.536;37.664;2022-08-21T01:33:55;100613.59;;;20.17;41.36
35694;BME280;21812;55.536;37.664;2022-08-21T01:36:21;100612.78;;;20.28;42.20
35694;BME280;21812;55.536;37.664;2022-08-21T01:38:48;100615.84;;;20.20;42.41
35694;BME280;21812;55.536;37.664;2022-08-21T01:41:14;100617.03;;;20.24;42.01
35694;BME280;21812;55.536;37.664;2022-08-21T01:43:43;100613.91;;;20.09;41.46
35694;BME280;21812;55.536;37.664;2022-08-21T01:46:10;100610.25;;;20.03;42.83
35694;BME280;21812;55.536;37.664;2022-08-21T01:48:36;100610.13;;;20.10;42.59
35694;BME280;21812;55.536;37.664;2022-08-21T01:51:03;100622.53;;;20.18;42.63
35694;BME280;21812;55.536;37.664;2022-08-21T01:53:29;100629.25;;;20.15;42.91
35694;BME280;21812;55.536;37.664;2022-08-21T01:55:55;100625.66;;;20.03;42.87
35694;BME280;21812;55.536;37.664;2022-08-21T01:58:21;100628.25;;;19.98;43.11
35694;BME280;21812;55.536;37.664;2022-08-21T02:00:46;100624.03;;;20.02;42.46
35694;BME280;21812;55.536;37.664;2022-08-21T02:03:18;100620.59;;;20.06;42.66
35694;BME280;21812;55.536;37.664;2022-08-21T02:05:45;100627.44;;;19.97;42.70
35694;BME280;21812;55.536;37.664;2022-08-21T02:08:10;100621.50;;;19.88;42.53
35694;BME280;21812;55.536;37.664;2022-08-21T02:10:36;100620.09;;;19.86;43.09
35694;BME280;21812;55.536;37.664;2022-08-21T02:13:02;100624.44;;;19.87;43.29
35694;BME280;21812;55.536;37.664;2022-08-21T02:15:29;100621.09;;;19.73;43.01
35694;BME280;21812;55.536;37.664;2022-08-21T02:17:59;100609.31;;;19.61;43.05
35694;BME280;21812;55.536;37.664;2022-08-21T02:22:52;100637.03;;;19.26;44.36
35694;BME280;21812;55.536;37.664;2022-08-21T02:25:19;100643.13;;;19.21;44.93
35694;BME280;21812;55.536;37.664;2022-08-21T02:27:47;100639.44;;;19.34;45.48
35694;BME280;21812;55.536;37.664;2022-08-21T02:30:18;100612.50;;;19.21;44.47
35694;BME280;21812;55.536;37.664;2022-08-21T02:32:44;100641.16;;;19.28;44.44
35694;BME280;21812;55.536;37.664;2022-08-21T02:35:11;100649.38;;;19.40;45.12
35694;BME280;21812;55.536;37.664;2022-08-21T02:40:43;100639.16;;;19.42;44.12
35694;BME280;21812;55.536;37.664;2022-08-21T02:43:09;100639.06;;;19.49;45.04
35694;BME280;21812;55.536;37.664;2022-08-21T02:45:36;100643.06;;;19.46;44.86
35694;BME280;21812;55.536;37.664;2022-08-21T02:48:07;100634.78;;;19.60;44.61
35694;BME280;21812;55.536;37.664;2022-08-21T02:50:50;100635.97;;;19.64;44.53
35694;BME280;21812;55.536;37.664;2022-08-21T02:53:17;100642.56;;;19.68;44.09
35694;BME280;21812;55.536;37.664;2022-08-21T02:55:45;100624.09;;;19.65;44.44
35694;BME280;21812;55.536;37.664;2022-08-21T02:58:12;100643.50;;;19.80;44.15
35694;BME280;21812;55.536;37.664;2022-08-21T03:00:38;100645.97;;;19.82;44.13
35694;BME280;21812;55.536;37.664;2022-08-21T03:03:05;100631.81;;;19.80;44.25
35694;BME280;21812;55.536;37.664;2022-08-21T03:05:32;100597.84;;;19.47;43.92
35694;BME280;21812;55.536;37.664;2022-08-21T03:08:00;100638.09;;;19.80;44.16
35694;BME280;21812;55.536;37.664;2022-08-21T03:10:26;100643.59;;;19.73;43.91
35694;BME280;21812;55.536;37.664;2022-08-21T03:12:52;100639.28;;;19.84;43.91
35694;BME280;21812;55.536;37.664;2022-08-21T03:15:21;100639.91;;;19.98;43.55
35694;BME280;21812;55.536;37.664;2022-08-21T03:17:47;100635.13;;;20.12;43.35
35694;BME280;21812;55.536;37.664;2022-08-21T03:20:16;100631.38;;;20.13;42.45
35694;BME280;21812;55.536;37.664;2022-08-21T03:22:42;100639.66;;;20.18;42.60
35694;BME280;21812;55.536;37.664;2022-08-21T03:25:08;100641.88;;;20.21;42.55
35694;BME280;21812;55.536;37.664;2022-08-21T03:27:34;100647.16;;;20.16;42.61
35694;BME280;21812;55.536;37.664;2022-08-21T03:30:03;100649.06;;;20.16;42.75
35694;BME280;21812;55.536;37.664;2022-08-21T03:32:29;100645.31;;;20.28;42.44
35694;BME280;21812;55.536;37.664;2022-08-21T03:34:57;100646.16;;;20.41;41.97
35694;BME280;21812;55.536;37.664;2022-08-21T03:37:23;100643.13;;;20.49;41.89
35694;BME280;21812;55.536;37.664;2022-08-21T03:39:50;100648.66;;;20.54;41.60
35694;BME280;21812;55.536;37.664;2022-08-21T03:42:16;100644.91;;;20.55;41.29
35694;BME280;21812;55.536;37.664;2022-08-21T03:44:41;100635.84;;;20.61;41.32
35694;BME280;21812;55.536;37.664;2022-08-21T03:47:07;100635.63;;;20.63;40.92
35694;BME280;21812;55.536;37.664;2022-08-21T03:49:33;100645.81;;;20.79;40.82
35694;BME280;21812;55.536;37.664;2022-08-21T03:51:59;100641.06;;;20.86;40.28
35694;BME280;21812;55.536;37.664;2022-08-21T03:54:25;100638.25;;;20.93;39.98
35694;BME280;21812;55.536;37.664;2022-08-21T03:56:51;100641.78;;;20.94;40.33
35694;BME280;21812;55.536;37.664;2022-08-21T03:59:17;100633.75;;;20.87;40.31
35694;BME280;21812;55.536;37.664;2022-08-21T04:01:57;100616.19;;;20.78;40.33
35694;BME280;21812;55.536;37.664;2022-08-21T04:04:25;100639.19;;;20.87;40.05
35694;BME280;21812;55.536;37.664;2022-08-21T04:06:51;100643.69;;;20.69;40.78
35694;BME280;21812;55.536;37.664;2022-08-21T04:09:18;100642.00;;;20.68;41.12
35694;BME280;21812;55.536;37.664;2022-08-21T04:11:44;100646.13;;;20.71;41.23
35694;BME280;21812;55.536;37.664;2022-08-21T04:14:11;100633.88;;;20.68;41.20
35694;BME280;21812;55.536;37.664;2022-08-21T04:16:37;100648.59;;;20.61;40.81
35694;BME280;21812;55.536;37.664;2022-08-21T04:19:06;100638.81;;;20.60;41.62
35694;BME280;21812;55.536;37.664;2022-08-21T04:21:31;100629.75;;;20.66;41.28
35694;BME280;21812;55.536;37.664;2022-08-21T04:23:57;100633.75;;;20.75;41.07
35694;BME280;21812;55.536;37.664;2022-08-21T04:26:25;100628.44;;;20.68;41.00
35694;BME280;21812;55.536;37.664;2022-08-21T04:28:51;100641.66;;;20.77;40.86
35694;BME280;21812;55.536;37.664;2022-08-21T04:31:18;100637.31;;;20.76;41.13
35694;BME280;21812;55.536;37.664;2022-08-21T04:33:43;100639.44;;;20.74;40.68
35694;BME280;21812;55.536;37.664;2022-08-21T04:36:11;100641.28;;;20.73;40.69
35694;BME280;21812;55.536;37.664;2022-08-21T04:38:37;100645.44;;;20.76;40.88
35694;BME280;21812;55.536;37.664;2022-08-21T04:41:03;100636.59;;;20.80;40.64
35694;BME280;21812;55.536;37.664;2022-08-21T04:43:30;100641.19;;;20.80;40.82
35694;BME280;21812;55.536;37.664;2022-08-21T04:45:56;100648.38;;;20.74;40.67
35694;BME280;21812;55.536;37.664;2022-08-21T04:48:23;100644.50;;;20.82;40.53
35694;BME280;21812;55.536;37.664;2022-08-21T04:56:20;100640.59;;;20.89;40.00
35694;BME280;21812;55.536;37.664;2022-08-21T04:58:47;100656.53;;;20.86;40.06
35694;BME280;21812;55.536;37.664;2022-08-21T05:01:21;100644.13;;;20.90;39.89
35694;BME280;21812;55.536;37.664;2022-08-21T05:03:49;100636.72;;;20.85;39.98
35694;BME280;21812;55.536;37.664;2022-08-21T05:06:16;100651.34;;;20.96;40.25
35694;BME280;21812;55.536;37.664;2022-08-21T05:08:43;100648.38;;;20.98;40.16
35694;BME280;21812;55.536;37.664;2022-08-21T05:11:10;100645.22;;;20.89;39.32
35694;BME280;21812;55.536;37.664;2022-08-21T05:13:36;100642.59;;;20.94;40.07
35694;BME280;21812;55.536;37.664;2022-08-21T05:16:02;100642.72;;;20.99;40.10
35694;BME280;21812;55.536;37.664;2022-08-21T05:18:28;100637.78;;;20.96;40.21
35694;BME280;21812;55.536;37.664;2022-08-21T05:20:53;100637.53;;;20.98;40.53
35694;BME280;21812;55.536;37.664;2022-08-21T05:23:19;100628.78;;;20.96;40.84
35694;BME280;21812;55.536;37.664;2022-08-21T05:25:45;100625.97;;;21.02;40.34
35694;BME280;21812;55.536;37.664;2022-08-21T05:28:11;100629.84;;;21.06;40.27
35694;BME280;21812;55.536;37.664;2022-08-21T05:30:38;100636.09;;;21.07;40.61
35694;BME280;21812;55.536;37.664;2022-08-21T05:33:05;100639.41;;;21.09;40.53
35694;BME280;21812;55.536;37.664;2022-08-21T05:35:33;100636.69;;;20.97;40.83
35694;BME280;21812;55.536;37.664;2022-08-21T05:37:59;100642.13;;;20.97;40.88
35694;BME280;21812;55.536;37.664;2022-08-21T05:40:26;100642.84;;;21.04;40.83
35694;BME280;21812;55.536;37.664;2022-08-21T05:42:53;100627.38;;;21.05;40.51
35694;BME280;21812;55.536;37.664;2022-08-21T05:45:19;100636.66;;;21.21;40.35
35694;BME280;21812;55.536;37.664;2022-08-21T05:47:45;100645.16;;;21.24;39.96
35694;BME280;21812;55.536;37.664;2022-08-21T05:50:11;100625.25;;;21.07;40.40
35694;BME280;21812;55.536;37.664;2022-08-21T05:52:36;100637.63;;;21.15;40.46
35694;BME280;21812;55.536;37.664;2022-08-21T05:55:12;100627.47;;;21.22;40.24
35694;BME280;21812;55.536;37.664;2022-08-21T05:57:38;100636.22;;;21.24;39.97
35694;BME280;21812;55.536;37.664;2022-08-21T06:00:08;100616.50;;;21.05;40.25
35694;BME280;21812;55.536;37.664;2022-08-21T06:02:39;100636.56;;;21.27;40.07
35694;BME280;21812;55.536;37.664;2022-08-21T06:05:05;100629.00;;;21.29;40.12
35694;BME280;21812;55.536;37.664;2022-08-21T06:07:40;100629.69;;;21.37;40.00
35694;BME280;21812;55.536;37.664;2022-08-21T06:10:07;100616.13;;;21.37;40.09
35694;BME280;21812;55.536;37.664;2022-08-21T06:12:32;100615.63;;;21.40;39.85
35694;BME280;21812;55.536;37.664;2022-08-21T06:14:58;100618.69;;;21.43;40.01
35694;BME280;21812;55.536;37.664;2022-08-21T06:17:26;100623.22;;;21.26;40.33
35694;BME280;21812;55.536;37.664;2022-08-21T06:19:52;100616.81;;;21.32;40.00
35694;BME280;21812;55.536;37.664;2022-08-21T06:22:18;100623.28;;;21.43;39.92
35694;BME280;21812;55.536;37.664;2022-08-21T06:24:44;100625.31;;;21.47;39.69
35694;BME280;21812;55.536;37.664;2022-08-21T06:27:10;100627.44;;;21.45;40.01
35694;BME280;21812;55.536;37.664;2022-08-21T06:29:36;100618.59;;;21.50;39.66
35694;BME280;21812;55.536;37.664;2022-08-21T06:32:02;100619.75;;;21.54;39.45
35694;BME280;21812;55.536;37.664;2022-08-21T06:34:30;100613.41;;;21.48;39.58
35694;BME280;21812;55.536;37.664;2022-08-21T06:36:56;100618.78;;;21.60;39.54
35694;BME280;21812;55.536;37.664;2022-08-21T06:39:22;100614.84;;;21.68;39.49
35694;BME280;21812;55.536;37.664;2022-08-21T06:41:47;100614.72;;;21.75;38.81
35694;BME280;21812;55.536;37.664;2022-08-21T06:44:16;100616.63;;;21.74;38.86
35694;BME280;21812;55.536;37.664;2022-08-21T06:46:42;100611.84;;;21.81;38.68
35694;BME280;21812;55.536;37.664;2022-08-21T06:49:07;100607.56;;;21.85;38.60
35694;BME280;21812;55.536;37.664;2022-08-21T06:51:33;100609.91;;;21.94;38.75
35694;BME280;21812;55.536;37.664;2022-08-21T06:53:59;100601.25;;;21.97;38.45
35694;BME280;21812;55.536;37.664;2022-08-21T06:56:25;100600.19;;;21.98;38.66
35694;BME280;21812;55.536;37.664;2022-08-21T06:58:53;100602.50;;;22.06;38.21
35694;BME280;21812;55.536;37.664;2022-08-21T07:01:23;100603.59;;;22.05;38.09
35694;BME280;21812;55.536;37.664;2022-08-21T07:03:49;100590.72;;;22.00;37.71
35694;BME280;21812;55.536;37.664;2022-08-21T07:06:15;100594.88;;;22.03;38.23
35694;BME280;21812;55.536;37.664;2022-08-21T07:08:41;100595.44;;;22.05;38.11
35694;BME280;21812;55.536;37.664;2022-08-21T07:11:14;100589.16;;;22.04;37.82
35694;BME280;21812;55.536;37.664;2022-08-21T07:13:42;100589.00;;;22.11;37.79
35694;BME280;21812;55.536;37.664;2022-08-21T07:16:08;100590.75;;;22.17;37.80
35694;BME280;21812;55.536;37.664;2022-08-21T07:18:34;100595.38;;;22.17;37.72
35694;BME280;21812;55.536;37.664;2022-08-21T07:21:04;100592.66;;;22.17;37.50
35694;BME280;21812;55.536;37.664;2022-08-21T07:23:38;100577.69;;;22.02;37.31
35694;BME280;21812;55.536;37.664;2022-08-21T07:26:05;100595.50;;;22.10;37.50
35694;BME280;21812;55.536;37.664;2022-08-21T07:28:31;100597.66;;;22.08;37.55
35694;BME280;21812;55.536;37.664;2022-08-21T07:30:58;100595.50;;;22.10;37.51
35694;BME280;21812;55.536;37.664;2022-08-21T07:33:26;100569.38;;;21.92;37.64
35694;BME280;21812;55.536;37.664;2022-08-21T07:35:52;100589.25;;;22.10;37.67
35694;BME280;21812;55.536;37.664;2022-08-21T07:38:18;100598.22;;;22.10;38.06
35694;BME280;21812;55.536;37.664;2022-08-21T07:40:45;100584.38;;;22.12;37.71
35694;BME280;21812;55.536;37.664;2022-08-21T07:43:11;100577.81;;;22.24;37.15
35694;BME280;21812;55.536;37.664;2022-08-21T07:45:37;100578.53;;;22.32;37.18
35694;BME280;21812;55.536;37.664;2022-08-21T07:48:04;100574.81;;;22.38;36.96
35694;BME280;21812;55.536;37.664;2022-08-21T07:50:30;100569.25;;;22.33;35.78
35694;BME280;21812;55.536;37.664;2022-08-21T07:52:56;100539.16;;;22.22;38.76
35694;BME280;21812;55.536;37.664;2022-08-21T07:55:22;100576.28;;;22.45;36.10
35694;BME280;21812;55.536;37.664;2022-08-21T07:57:49;100581.53;;;22.52;37.00
35694;BME280;21812;55.536;37.664;2022-08-21T08:00:18;100571.81;;;22.56;37.66
35694;BME280;21812;55.536;37.664;2022-08-21T08:02:46;100538.00;;;22.52;37.82
35694;BME280;21812;55.536;37.664;2022-08-21T08:05:17;100530.44;;;22.54;37.04
35694;BME280;21812;55.536;37.664;2022-08-21T08:07:43;100552.81;;;22.78;36.42
35694;BME280;21812;55.536;37.664;2022-08-21T08:10:09;100571.75;;;22.90;36.56
35694;BME280;21812;55.536;37.664;2022-08-21T08:12:38;100518.19;;;22.74;36.78
35694;BME280;21812;55.536;37.664;2022-08-21T08:15:07;100561.72;;;23.13;36.57
35694;BME280;21812;55.536;37.664;2022-08-21T08:17:33;100558.44;;;23.33;40.04
35694;BME280;21812;55.536;37.664;2022-08-21T08:19:59;100566.47;;;23.45;37.47
35694;BME280;21812;55.536;37.664;2022-08-21T08:22:26;100546.94;;;23.53;42.88
35694;BME280;21812;55.536;37.664;2022-08-21T08:24:53;100541.88;;;23.61;46.33
35694;BME280;21812;55.536;37.664;2022-08-21T08:27:20;100552.28;;;23.65;39.55
35694;BME280;21812;55.536;37.664;2022-08-21T08:29:46;100550.38;;;23.70;37.68
35694;BME280;21812;55.536;37.664;2022-08-21T08:32:13;100542.22;;;23.70;36.78
35694;BME280;21812;55.536;37.664;2022-08-21T08:34:39;100542.22;;;23.70;36.85
35694;BME280;21812;55.536;37.664;2022-08-21T08:37:08;100522.47;;;23.58;35.37
35694;BME280;21812;55.536;37.664;2022-08-21T08:39:35;100544.53;;;23.78;36.08
35694;BME280;21812;55.536;37.664;2022-08-21T08:42:16;100524.63;;;23.56;33.38
35694;BME280;21812;55.536;37.664;2022-08-21T08:44:45;100541.50;;;23.53;33.06
35694;BME280;21812;55.536;37.664;2022-08-21T08:47:14;100527.06;;;23.30;33.72
35694;BME280;21812;55.536;37.664;2022-08-21T08:49:51;100539.00;;;23.24;33.85
35694;BME280;21812;55.536;37.664;2022-08-21T08:52:27;100550.41;;;23.21;34.71
35694;BME280;21812;55.536;37.664;2022-08-21T08:57:29;100543.81;;;23.17;34.25
35694;BME280;21812;55.536;37.664;2022-08-21T08:59:58;100525.19;;;23.09;34.98
35694;BME280;21812;55.536;37.664;2022-08-21T09:02:25;100539.81;;;23.25;35.25
35694;BME280;21812;55.536;37.664;2022-08-21T09:04:53;100550.03;;;23.34;35.68
35694;BME280;21812;55.536;37.664;2022-08-21T09:10:21;100531.31;;;23.43;34.50
35694;BME280;21812;55.536;37.664;2022-08-21T09:15:55;100548.25;;;23.72;34.28
35694;BME280;21812;55.536;37.664;2022-08-21T09:24:15;100528.78;;;23.86;32.35
35694;BME280;21812;55.536;37.664;2022-08-21T09:29:20;100542.50;;;23.69;32.90
35694;BME280;21812;55.536;37.664;2022-08-21T09:31:48;100541.00;;;23.56;33.62
35694;BME280;21812;55.536;37.664;2022-08-21T09:34:27;100529.16;;;23.45;33.43
35694;BME280;21812;55.536;37.664;2022-08-21T09:36:54;100546.13;;;23.52;33.56
35694;BME280;21812;55.536;37.664;2022-08-21T09:39:26;100526.06;;;23.36;34.68
35694;BME280;21812;55.536;37.664;2022-08-21T09:42:03;100523.78;;;23.28;33.47
35694;BME280;21812;55.536;37.664;2022-08-21T09:44:32;100533.97;;;23.38;33.13
35694;BME280;21812;55.536;37.664;2022-08-21T09:46:58;100536.97;;;23.36;33.00
35694;BME280;21812;55.536;37.664;2022-08-21T09:49:33;100530.00;;;23.23;33.59
35694;BME280;21812;55.536;37.664;2022-08-21T09:52:00;100554.06;;;23.32;33.50
35694;BME280;21812;55.536;37.664;2022-08-21T09:54:30;100522.28;;;23.15;33.85
35694;BME280;21812;55.536;37.664;2022-08-21T09:59:53;100542.28;;;23.26;34.76
35694;BME280;21812;55.536;37.664;2022-08-21T10:04:51;100533.44;;;23.14;35.38
35694;BME280;21812;55.536;37.664;2022-08-21T10:07:20;100540.00;;;23.18;34.43
35694;BME280;21812;55.536;37.664;2022-08-21T10:09:57;100542.16;;;23.16;34.59
35694;BME280;21812;55.536;37.664;2022-08-21T10:12:30;100521.91;;;23.07;34.14
35694;BME280;21812;55.536;37.664;2022-08-21T10:15:18;100520.25;;;23.06;33.94
35694;BME280;21812;55.536;37.664;2022-08-21T10:25:52;100528.09;;;23.24;35.77
35694;BME280;21812;55.536;37.664;2022-08-21T10:31:03;100526.78;;;23.27;35.40
35694;BME280;21812;55.536;37.664;2022-08-21T10:36:40;100515.34;;;23.30;35.71
35694;BME280;21812;55.536;37.664;2022-08-21T10:39:33;100510.28;;;23.38;35.98
35694;BME280;21812;55.536;37.664;2022-08-21T10:42:17;100474.69;;;23.23;35.98
35694;BME280;21812;55.536;37.664;2022-08-21T10:44:53;100496.66;;;23.38;35.23
35694;BME280;21812;55.536;37.664;2022-08-21T10:47:32;100494.50;;;23.40;35.48
35694;BME280;21812;55.536;37.664;2022-08-21T10:52:41;100490.25;;;23.50;35.70
35694;BME280;21812;55.536;37.664;2022-08-21T10:55:19;100491.88;;;23.51;33.08
35694;BME280;21812;55.536;37.664;2022-08-21T10:57:50;100488.63;;;23.54;33.00
35694;BME280;21812;55.536;37.664;2022-08-21T11:00:23;100474.38;;;23.47;33.13
35694;BME280;21812;55.536;37.664;2022-08-21T11:02:58;100489.25;;;23.61;33.15
35694;BME280;21812;55.536;37.664;2022-08-21T11:05:33;100500.81;;;23.73;32.83
35694;BME280;21812;55.536;37.664;2022-08-21T11:08:07;100490.81;;;23.79;33.10
35694;BME280;21812;55.536;37.664;2022-08-21T11:10:45;100492.13;;;23.76;33.00
35694;BME280;21812;55.536;37.664;2022-08-21T11:19:04;100491.56;;;23.74;34.05
35694;BME280;21812;55.536;37.664;2022-08-21T11:21:56;100504.25;;;23.91;38.04
35694;BME280;21812;55.536;37.664;2022-08-21T11:24:34;100502.16;;;23.98;38.22
35694;BME280;21812;55.536;37.664;2022-08-21T11:29:44;100451.22;;;23.76;38.92
35694;BME280;21812;55.536;37.664;2022-08-21T11:43:55;100468.75;;;24.18;36.55
35694;BME280;21812;55.536;37.664;2022-08-21T11:49:06;100472.91;;;24.26;39.73
35694;BME280;21812;55.536;37.664;2022-08-21T11:52:03;100469.91;;;24.75;36.41
35694;BME280;21812;55.536;37.664;2022-08-21T11:54:41;100466.69;;;24.88;34.83
35694;BME280;21812;55.536;37.664;2022-08-21T12:00:04;100468.31;;;24.79;34.46
35694;BME280;21812;55.536;37.664;2022-08-21T12:02:42;100456.53;;;24.73;34.44
35694;BME280;21812;55.536;37.664;2022-08-21T12:05:11;100463.06;;;24.72;34.60
35694;BME280;21812;55.536;37.664;2022-08-21T12:07:47;100462.00;;;24.73;32.13
35694;BME280;21812;55.536;37.664;2022-08-21T12:10:17;100469.94;;;24.80;33.59
35694;BME280;21812;55.536;37.664;2022-08-21T12:12:46;100466.63;;;24.73;31.60
35694;BME280;21812;55.536;37.664;2022-08-21T12:20:40;100486.91;;;24.87;32.92
35694;BME280;21812;55.536;37.664;2022-08-21T12:28:26;100478.75;;;24.97;33.58
35694;BME280;21812;55.536;37.664;2022-08-21T12:30:52;100470.31;;;25.04;33.24
35694;BME280;21812;55.536;37.664;2022-08-21T12:33:28;100472.75;;;25.01;33.64
35694;BME280;21812;55.536;37.664;2022-08-21T12:36:15;100466.75;;;25.04;33.93
35694;BME280;21812;55.536;37.664;2022-08-21T12:38:52;100469.50;;;25.09;34.84
35694;BME280;21812;55.536;37.664;2022-08-21T12:41:24;100478.78;;;25.08;34.86
35694;BME280;21812;55.536;37.664;2022-08-21T12:46:31;100473.88;;;25.10;36.55
35694;BME280;21812;55.536;37.664;2022-08-21T12:49:12;100444.34;;;24.96;36.52
35694;BME280;21812;55.536;37.664;2022-08-21T12:51:55;100464.88;;;25.20;34.17
35694;BME280;21812;55.536;37.664;2022-08-21T12:54:37;100454.31;;;25.44;34.78
35694;BME280;21812;55.536;37.664;2022-08-21T12:57:06;100443.38;;;25.49;32.77
35694;BME280;21812;55.536;37.664;2022-08-21T12:59:32;100446.13;;;25.59;35.51
35694;BME280;21812;55.536;37.664;2022-08-21T13:02:18;100440.94;;;25.63;34.62
35694;BME280;21812;55.536;37.664;2022-08-21T13:04:46;100445.03;;;25.65;34.19
35694;BME280;21812;55.536;37.664;2022-08-21T13:07:16;100429.97;;;25.47;33.87
35694;BME280;21812;55.536;37.664;2022-08-21T13:09:51;100436.56;;;25.51;34.84
35694;BME280;21812;55.536;37.664;2022-08-21T13:12:20;100441.19;;;25.56;34.28
35694;BME280;21812;55.536;37.664;2022-08-21T13:14:48;100422.59;;;25.58;34.39
35694;BME280;21812;55.536;37.664;2022-08-21T13:17:20;100422.84;;;25.72;34.19
35694;BME280;21812;55.536;37.664;2022-08-21T13:20:00;100429.16;;;25.83;34.44
35694;BME280;21812;55.536;37.664;2022-08-21T13:22:30;100444.75;;;25.77;35.11
35694;BME280;21812;55.536;37.664;2022-08-21T13:24:57;100445.28;;;25.74;36.17
35694;BME280;21812;55.536;37.664;2022-08-21T13:27:29;100439.56;;;25.65;34.09
35694;BME280;21812;55.536;37.664;2022-08-21T13:30:09;100410.00;;;25.36;34.71
35694;BME280;21812;55.536;37.664;2022-08-21T13:32:40;100426.97;;;25.39;34.48
35694;BME280;21812;55.536;37.664;2022-08-21T13:37:39;100441.16;;;25.35;34.92
35694;BME280;21812;55.536;37.664;2022-08-21T13:40:09;100426.88;;;25.18;30.58
35694;BME280;21812;55.536;37.664;2022-08-21T13:42:39;100447.19;;;25.32;36.44
35694;BME280;21812;55.536;37.664;2022-08-21T13:45:13;100443.38;;;25.39;36.07
35694;BME280;21812;55.536;37.664;2022-08-21T13:47:39;100435.69;;;25.35;35.68
35694;BME280;21812;55.536;37.664;2022-08-21T13:50:05;100441.44;;;25.34;35.17
35694;BME280;21812;55.536;37.664;2022-08-21T13:52:47;100412.16;;;25.19;34.42
35694;BME280;21812;55.536;37.664;2022-08-21T13:55:16;100412.97;;;25.20;33.36
35694;BME280;21812;55.536;37.664;2022-08-21T13:57:42;100429.13;;;25.26;33.14
35694;BME280;21812;55.536;37.664;2022-08-21T14:00:12;100436.75;;;25.24;33.03
35694;BME280;21812;55.536;37.664;2022-08-21T14:02:42;100408.56;;;25.08;33.04
35694;BME280;21812;55.536;37.664;2022-08-21T14:05:20;100407.19;;;25.11;33.39
35694;BME280;21812;55.536;37.664;2022-08-21T14:07:47;100423.91;;;25.20;33.56
35694;BME280;21812;55.536;37.664;2022-08-21T14:10:17;100402.00;;;25.04;31.63
35694;BME280;21812;55.536;37.664;2022-08-21T14:12:55;100426.09;;;25.17;32.94
35694;BME280;21812;55.536;37.664;2022-08-21T14:15:26;100413.75;;;25.05;33.56
35694;BME280;21812;55.536;37.664;2022-08-21T14:17:55;100430.16;;;25.10;32.91
35694;BME280;21812;55.536;37.664;2022-08-21T14:20:34;100435.88;;;25.08;32.92
35694;BME280;21812;55.536;37.664;2022-08-21T14:23:07;100427.16;;;25.06;33.15